Time;durP1;ratioP1;P1;durP2;ratioP2;P2;SDS_P1;SDS_P2;PMS_P1;PMS_P2;Temp;Humidity;BMP_temperature;BMP_pressure;BME280_temperature;BME280_humidity;BME280_pressure;Samples;Min_cycle;Max_cycle;Signal;HPM_P1;HPM_P2
2022/10/25 00:00:35;;;;;;;6.03;2.63;;;14.30;99.90;;;;;;2611561;39;21059;-80
2022/10/25 00:04:00;;;;;;;5.40;2.47;;;14.20;99.90;;;;;;2612439;54;20420;-79
2022/10/25 00:09:48;;;;;;;5.50;1.83;;;14.20;99.90;;;;;;2613638;54;20384;-79
2022/10/25 00:15:36;;;;;;;13.13;2.43;;;14.30;99.90;;;;;;2614867;54;20130;-79
2022/10/25 00:21:25;;;;;;;9.43;3.10;;;14.30;99.90;;;;;;2612420;54;21117;-79
2022/10/25 00:27:13;;;;;;;4.60;2.67;;;14.30;99.90;;;;;;2612888;54;20406;-79
2022/10/25 00:33:00;;;;;;;18.13;3.07;;;14.20;99.90;;;;;;2615069;54;20683;-77
2022/10/25 00:38:48;;;;;;;11.43;2.60;;;14.30;99.90;;;;;;2615358;54;20210;-76
2022/10/25 00:44:39;;;;;;;8.00;3.13;;;14.40;99.90;;;;;;2616434;46;20149;-77
2022/10/25 00:50:45;;;;;;;4.20;2.23;;;14.50;99.90;;;;;;2616572;54;21356;-76
2022/10/25 00:56:37;;;;;;;8.73;2.00;;;14.40;99.90;;;;;;2615388;54;20395;-76
2022/10/25 00:59:28;;;;;;;11.83;3.00;;;14.50;99.90;;;;;;2615118;39;20901;-77
2022/10/25 01:01:55;;;;;;;9.20;2.33;;;14.50;99.90;;;;;;2614234;47;20442;-77
2022/10/25 01:07:43;;;;;;;9.60;2.57;;;14.40;99.90;;;;;;2615295;39;20764;-77
2022/10/25 01:13:30;;;;;;;6.53;2.63;;;14.60;99.90;;;;;;2614687;54;20451;-78
2022/10/25 01:25:58;;;;;;;9.90;2.67;;;14.50;99.90;;;;;;2616247;54;20423;-78
2022/10/25 01:31:50;;;;;;;5.77;2.60;;;14.50;99.90;;;;;;2613954;54;20419;-78
2022/10/25 01:50:48;;;;;;;5.40;1.70;;;14.50;99.90;;;;;;2612988;54;20403;-83
2022/10/25 02:03:01;;;;;;;11.00;3.03;;;14.40;99.90;;;;;;2613828;54;21007;-79
2022/10/25 02:08:58;;;;;;;5.57;1.87;;;14.50;99.90;;;;;;2615303;39;20909;-79
2022/10/25 02:21:05;;;;;;;11.63;2.53;;;14.40;99.90;;;;;;2613814;54;20484;-78
2022/10/25 02:26:54;;;;;;;8.30;2.30;;;14.40;99.90;;;;;;2614198;39;21056;-79
2022/10/25 02:32:42;;;;;;;7.07;2.37;;;14.40;99.90;;;;;;2616227;54;20363;-79
2022/10/25 02:38:30;;;;;;;6.07;2.13;;;14.20;99.90;;;;;;2616879;54;20418;-78
2022/10/25 02:44:46;;;;;;;10.50;2.07;;;14.10;99.90;;;;;;2617514;54;20126;-78
2022/10/25 02:50:34;;;;;;;5.63;2.00;;;14.30;99.90;;;;;;2617591;39;21310;-79
2022/10/25 02:56:22;;;;;;;11.80;2.30;;;14.30;99.90;;;;;;2615970;54;20643;-76
2022/10/25 02:59:28;;;;;;;8.40;2.37;;;14.40;99.90;;;;;;2616414;39;20821;-76
2022/10/25 03:01:54;;;;;;;6.83;2.53;;;14.30;99.90;;;;;;2616834;31;20981;-76
2022/10/25 03:07:42;;;;;;;7.50;2.80;;;14.40;99.90;;;;;;2617153;54;20118;-78
2022/10/25 03:13:30;;;;;;;5.43;2.03;;;14.40;99.90;;;;;;2616176;54;20123;-80
2022/10/25 03:19:18;;;;;;;4.90;2.80;;;14.40;99.90;;;;;;2616315;54;20477;-79
2022/10/25 03:25:06;;;;;;;7.53;2.40;;;14.50;99.90;;;;;;2615426;54;20122;-77
2022/10/25 03:30:55;;;;;;;5.07;2.23;;;14.50;99.90;;;;;;2614846;54;20410;-80
2022/10/25 03:33:21;;;;;;;8.93;2.60;;;14.40;99.90;;;;;;2614083;54;20395;-80
2022/10/25 03:35:53;;;;;;;5.97;2.30;;;14.50;99.90;;;;;;2615062;54;20419;-80
2022/10/25 03:41:41;;;;;;;5.43;2.20;;;14.50;99.90;;;;;;2614298;54;20399;-80
2022/10/25 03:47:29;;;;;;;4.57;2.20;;;14.50;99.90;;;;;;2614060;54;20158;-80
2022/10/25 03:53:16;;;;;;;6.60;2.30;;;14.50;99.90;;;;;;2613948;54;20769;-76
2022/10/25 03:59:04;;;;;;;6.60;2.20;;;14.40;99.90;;;;;;2614407;54;20162;-80
2022/10/25 04:04:52;;;;;;;4.93;2.43;;;14.30;99.90;;;;;;2616064;54;20579;-79
2022/10/25 04:10:40;;;;;;;5.43;2.47;;;14.20;99.90;;;;;;2615859;54;20422;-79
2022/10/25 04:16:28;;;;;;;6.47;1.97;;;14.10;99.90;;;;;;2616960;54;20165;-79
2022/10/25 04:22:16;;;;;;;8.10;2.60;;;14.10;99.90;;;;;;2615269;54;20122;-78
2022/10/25 04:28:04;;;;;;;4.43;2.40;;;14.10;99.90;;;;;;2615660;54;20134;-79
2022/10/25 04:33:53;;;;;;;10.77;3.27;;;14.30;99.90;;;;;;2614317;54;20185;-78
2022/10/25 04:39:41;;;;;;;10.07;2.80;;;14.20;99.90;;;;;;2618026;39;20775;-76
2022/10/25 04:45:29;;;;;;;5.03;2.73;;;14.30;99.90;;;;;;2617345;54;20150;-75
2022/10/25 04:51:17;;;;;;;7.37;2.70;;;14.30;99.90;;;;;;2616239;54;20163;-75
2022/10/25 04:57:06;;;;;;;7.90;2.47;;;14.30;99.90;;;;;;2616809;54;20967;-79
2022/10/25 04:59:31;;;;;;;6.30;2.70;;;14.30;99.90;;;;;;2616517;54;20423;-79
2022/10/25 05:01:57;;;;;;;5.40;2.33;;;14.40;99.90;;;;;;2617248;47;20423;-80
2022/10/25 05:07:45;;;;;;;6.10;2.83;;;14.30;99.90;;;;;;2618569;54;20168;-79
2022/10/25 05:13:34;;;;;;;5.17;2.97;;;14.30;99.90;;;;;;2618723;54;20122;-82
2022/10/25 05:19:22;;;;;;;11.43;3.07;;;14.20;99.90;;;;;;2618743;54;20495;-80
2022/10/25 05:25:10;;;;;;;5.50;2.83;;;14.20;99.90;;;;;;2618161;54;20146;-77
2022/10/25 05:31:02;;;;;;;11.87;3.53;;;14.20;99.90;;;;;;2614212;54;20386;-77
2022/10/25 05:36:50;;;;;;;12.07;3.33;;;14.20;99.90;;;;;;2615205;54;20394;-75
2022/10/25 05:42:38;;;;;;;12.10;3.67;;;14.20;99.90;;;;;;2616814;39;20538;-77
2022/10/25 05:48:26;;;;;;;5.40;2.90;;;14.20;99.90;;;;;;2616063;54;20149;-77
2022/10/25 05:54:15;;;;;;;5.43;3.47;;;14.10;99.90;;;;;;2615898;54;20137;-75
2022/10/25 06:04:02;;;;;;;4.83;3.07;;;14.20;99.90;;;;;;2614615;54;20462;-79
2022/10/25 06:09:50;;;;;;;8.90;3.10;;;14.20;99.90;;;;;;2615619;54;21073;-79
2022/10/25 06:15:37;;;;;;;8.50;3.30;;;14.20;99.90;;;;;;2617751;54;20623;-81
2022/10/25 06:18:03;;;;;;;7.10;3.53;;;14.10;99.90;;;;;;2617231;54;20411;-80
2022/10/25 06:20:29;;;;;;;6.93;3.47;;;14.20;99.90;;;;;;2616833;54;20151;-80
2022/10/25 06:26:23;;;;;;;6.30;3.40;;;14.10;99.90;;;;;;2618942;39;20514;-81
2022/10/25 06:32:10;;;;;;;11.50;3.87;;;14.20;99.90;;;;;;2618830;54;20427;-80
2022/10/25 06:38:02;;;;;;;14.43;3.80;;;14.10;99.90;;;;;;2617611;54;20207;-81
2022/10/25 06:43:50;;;;;;;5.60;3.27;;;14.20;99.90;;;;;;2617633;39;20943;-80
2022/10/25 06:49:38;;;;;;;10.23;3.57;;;14.10;99.90;;;;;;2616951;54;20421;-77
2022/10/25 06:55:25;;;;;;;10.43;3.40;;;14.00;99.90;;;;;;2614482;54;20134;-77
2022/10/25 07:01:15;;;;;;;5.53;4.43;;;14.10;99.90;;;;;;2614648;54;20189;-77
2022/10/25 07:07:05;;;;;;;12.00;3.43;;;14.30;99.90;;;;;;2618396;54;20438;-79
2022/10/25 07:12:53;;;;;;;8.40;3.47;;;14.40;99.90;;;;;;2615339;54;20426;-80
2022/10/25 07:18:44;;;;;;;8.03;3.97;;;14.40;99.90;;;;;;2612529;54;20231;-76
2022/10/25 07:24:32;;;;;;;11.53;6.70;;;14.50;99.90;;;;;;2615641;54;20383;-77
2022/10/25 07:30:19;;;;;;;8.13;3.50;;;14.50;99.90;;;;;;2616414;54;20148;-76
2022/10/25 07:36:08;;;;;;;7.90;3.70;;;14.40;99.90;;;;;;2614564;54;20134;-76
2022/10/25 07:41:55;;;;;;;5.73;3.10;;;14.70;99.90;;;;;;2616271;54;20395;-75
2022/10/25 07:47:43;;;;;;;9.27;3.30;;;14.70;99.90;;;;;;2614341;54;20211;-76
2022/10/25 07:53:31;;;;;;;10.10;3.47;;;15.80;99.90;;;;;;2615984;54;20301;-75
2022/10/25 07:59:19;;;;;;;10.63;3.80;;;15.90;99.90;;;;;;2615534;54;20392;-75
2022/10/25 08:05:08;;;;;;;12.50;3.03;;;16.10;99.90;;;;;;2615724;54;20438;-75
2022/10/25 08:10:56;;;;;;;8.20;3.50;;;16.10;99.90;;;;;;2615883;39;20768;-76
2022/10/25 08:16:44;;;;;;;6.50;2.93;;;16.10;99.90;;;;;;2615261;54;20426;-75
2022/10/25 08:22:32;;;;;;;8.40;3.63;;;16.70;99.90;;;;;;2616385;31;20571;-77
2022/10/25 08:28:20;;;;;;;3.87;2.53;;;16.30;99.90;;;;;;2616781;39;20786;-76
2022/10/25 08:34:07;;;;;;;9.23;4.77;;;16.20;99.90;;;;;;2616237;54;20122;-75
2022/10/25 08:39:56;;;;;;;4.50;3.10;;;15.90;99.90;;;;;;2615841;39;20533;-77
2022/10/25 08:52:48;;;;;;;7.43;3.40;;;16.20;99.90;;;;;;2615542;54;20511;-78
2022/10/25 08:58:42;;;;;;;9.43;3.70;;;16.30;99.90;;;;;;2614509;54;20395;-78
2022/10/25 09:04:32;;;;;;;8.63;3.27;;;15.70;99.90;;;;;;2614169;39;20798;-77
2022/10/25 09:23:30;;;;;;;4.80;3.53;;;17.90;99.90;;;;;;2613063;54;20463;-76
2022/10/25 09:29:27;;;;;;;6.50;3.23;;;18.10;99.90;;;;;;2615011;54;20395;-76
2022/10/25 09:41:45;;;;;;;9.67;3.33;;;16.10;99.90;;;;;;2613994;54;20395;-77
2022/10/25 09:53:54;;;;;;;11.20;3.30;;;16.30;99.90;;;;;;2614635;54;20383;-76
2022/10/25 09:59:41;;;;;;;4.70;3.13;;;16.20;99.90;;;;;;2614605;54;20424;-76
2022/10/25 10:05:29;;;;;;;7.57;3.90;;;16.20;99.90;;;;;;2614881;54;20851;-76
2022/10/25 10:11:18;;;;;;;7.97;4.33;;;15.90;99.90;;;;;;2614231;54;20552;-76
2022/10/25 10:17:12;;;;;;;3.90;2.80;;;15.80;99.90;;;;;;2615702;54;20434;-76
2022/10/25 10:23:00;;;;;;;13.73;3.87;;;16.20;99.90;;;;;;2616306;54;20435;-76
2022/10/25 10:28:53;;;;;;;3.50;3.20;;;16.10;99.90;;;;;;2616660;31;20862;-75
2022/10/25 10:34:43;;;;;;;14.47;4.40;;;16.40;99.90;;;;;;2615911;54;20371;-77
2022/10/25 10:40:31;;;;;;;5.60;3.50;;;16.30;99.90;;;;;;2615498;54;20411;-76
2022/10/25 10:46:20;;;;;;;9.00;4.33;;;16.30;99.90;;;;;;2617233;31;20547;-76
2022/10/25 10:58:52;;;;;;;5.17;3.30;;;17.70;99.90;;;;;;2614541;54;20446;-79
2022/10/25 11:19:00;;;;;;;5.47;3.60;;;17.30;99.90;;;;;;2622778;54;20379;-81
2022/10/25 11:29:01;;;;;;;3.90;3.20;;;17.40;99.90;;;;;;2624031;54;20475;-81
2022/10/25 11:35:08;;;;;;;5.33;3.53;;;18.30;99.90;;;;;;2624723;54;20390;-83
2022/10/25 12:07:23;;;;;;;3.93;3.53;;;18.60;73.30;;;;;;2620788;54;20402;-81
2022/10/25 12:19:45;;;;;;;3.90;3.60;;;17.90;95.90;;;;;;2619682;54;20411;-81
2022/10/25 12:25:39;;;;;;;4.00;3.80;;;18.50;96.60;;;;;;2619809;54;20398;-80
2022/10/25 12:31:44;;;;;;;11.07;3.80;;;17.80;99.90;;;;;;2619366;39;20823;-82
2022/10/25 12:37:41;;;;;;;4.30;4.00;;;17.80;97.00;;;;;;2616504;54;20383;-80
2022/10/25 12:43:35;;;;;;;9.07;4.40;;;17.10;99.90;;;;;;2614871;54;20395;-79
2022/10/25 12:49:57;;;;;;;6.00;3.67;;;17.10;99.90;;;;;;2614026;54;20462;-77
2022/10/25 13:08:48;;;;;;;5.40;3.90;;;17.20;99.90;;;;;;2621509;54;20383;-81
2022/10/25 13:14:42;;;;;;;5.87;3.87;;;17.30;99.90;;;;;;2616381;54;20391;-76
2022/10/25 13:20:32;;;;;;;3.70;3.40;;;17.20;99.90;;;;;;2616915;54;20410;-78
2022/10/25 13:26:26;;;;;;;4.67;4.03;;;18.00;99.90;;;;;;2616322;54;20403;-77
2022/10/25 13:32:18;;;;;;;13.10;4.37;;;20.90;82.10;;;;;;2615573;54;21005;-76
2022/10/25 13:38:08;;;;;;;10.03;4.30;;;18.40;99.90;;;;;;2616933;54;20399;-77
2022/10/25 13:50:17;;;;;;;5.60;3.80;;;19.10;99.90;;;;;;2615585;54;21090;-75
2022/10/25 13:56:11;;;;;;;4.17;3.87;;;18.10;99.90;;;;;;2615984;54;20479;-77
2022/10/25 14:08:54;;;;;;;6.33;3.80;;;17.30;99.90;;;;;;2616057;54;20399;-75
2022/10/25 14:21:13;;;;;;;4.13;3.70;;;20.10;97.30;;;;;;2615162;54;20951;-76
2022/10/25 14:27:01;;;;;;;10.20;3.80;;;18.60;99.90;;;;;;2615094;54;20418;-77
2022/10/25 14:32:55;;;;;;;4.03;3.53;;;17.70;99.90;;;;;;2616117;54;20134;-77
2022/10/25 14:38:52;;;;;;;5.03;3.93;;;19.10;99.90;;;;;;2621608;54;20903;-81
2022/10/25 14:44:49;;;;;;;8.73;3.60;;;17.80;99.90;;;;;;2621055;54;20484;-80
2022/10/25 14:50:37;;;;;;;6.90;4.40;;;17.40;99.90;;;;;;2614235;54;20398;-78
2022/10/25 14:56:31;;;;;;;4.70;4.10;;;17.00;99.90;;;;;;2614124;54;20395;-75
2022/10/25 15:02:35;;;;;;;8.13;4.37;;;17.10;99.90;;;;;;2614353;54;20418;-75
2022/10/25 15:12:03;;;;;;;7.60;3.60;;;18.40;99.90;;;;;;2615811;54;20458;-76
2022/10/25 15:17:52;;;;;;;7.13;4.40;;;18.20;99.90;;;;;;2616478;39;20773;-76
2022/10/25 15:23:41;;;;;;;5.57;3.83;;;17.10;99.90;;;;;;2616337;54;20400;-76
2022/10/25 15:36:02;;;;;;;3.20;3.00;;;16.70;99.90;;;;;;2617328;54;20398;-78
2022/10/25 15:41:50;;;;;;;6.03;3.60;;;16.30;99.90;;;;;;2616462;39;20792;-77
2022/10/25 15:47:40;;;;;;;4.90;3.70;;;16.10;99.90;;;;;;2617780;54;20134;-78
2022/10/25 15:53:29;;;;;;;4.73;3.90;;;15.80;99.90;;;;;;2621626;54;20414;-80
2022/10/25 15:59:17;;;;;;;4.43;3.17;;;15.60;99.90;;;;;;2622453;54;20937;-80
2022/10/25 16:05:05;;;;;;;3.47;3.13;;;15.40;99.90;;;;;;2617890;54;20230;-79
2022/10/25 16:10:53;;;;;;;11.07;3.10;;;14.90;99.90;;;;;;2614033;54;20391;-76
2022/10/25 16:16:41;;;;;;;9.90;3.80;;;14.70;99.90;;;;;;2616339;39;21167;-76
2022/10/25 16:22:29;;;;;;;4.00;3.60;;;14.70;99.90;;;;;;2616911;31;20819;-77
2022/10/25 16:28:18;;;;;;;7.73;3.53;;;14.70;99.90;;;;;;2616888;39;20640;-76
2022/10/25 16:34:06;;;;;;;8.30;4.97;;;14.60;99.90;;;;;;2616465;54;20383;-76
2022/10/25 16:39:54;;;;;;;4.60;3.20;;;14.60;99.90;;;;;;2616761;54;20192;-76
2022/10/25 16:45:42;;;;;;;4.17;3.07;;;14.50;99.90;;;;;;2616920;54;20703;-75
2022/10/25 16:51:33;;;;;;;4.03;3.33;;;14.40;99.90;;;;;;2617393;39;20554;-76
2022/10/25 16:57:20;;;;;;;12.60;4.50;;;14.10;99.90;;;;;;2617126;54;20399;-79
2022/10/25 17:03:08;;;;;;;9.27;4.53;;;13.70;99.90;;;;;;2616175;54;20150;-77
2022/10/25 17:12:18;;;;;;;6.40;3.67;;;13.10;99.90;;;;;;2615639;54;20426;-77
2022/10/25 17:18:05;;;;;;;10.83;3.90;;;12.70;99.90;;;;;;2615616;54;20122;-76
2022/10/25 17:23:54;;;;;;;7.13;5.20;;;12.50;99.90;;;;;;2622337;54;20139;-80
2022/10/25 17:29:42;;;;;;;8.53;4.00;;;12.30;99.90;;;;;;2622077;54;20423;-79
2022/10/25 17:35:30;;;;;;;8.70;5.40;;;12.10;99.90;;;;;;2622323;54;20169;-80
2022/10/25 17:41:18;;;;;;;9.23;5.13;;;12.00;99.90;;;;;;2623025;54;20135;-81
2022/10/25 17:47:06;;;;;;;5.20;4.70;;;11.80;99.90;;;;;;2621873;54;20154;-76
2022/10/25 17:52:56;;;;;;;9.20;5.80;;;11.70;99.90;;;;;;2616139;54;20652;-75
2022/10/25 17:58:46;;;;;;;15.33;5.20;;;11.70;99.90;;;;;;2615922;54;20407;-76
2022/10/25 18:04:34;;;;;;;8.77;4.80;;;11.50;99.90;;;;;;2615737;39;20458;-77
2022/10/25 18:07:38;;;;;;;8.77;4.83;;;11.50;99.90;;;;;;2618685;54;20431;-79
2022/10/25 18:13:44;;;;;;;6.50;5.87;;;11.40;99.90;;;;;;2619583;54;20452;-77
2022/10/25 18:19:32;;;;;;;10.40;5.77;;;11.30;99.90;;;;;;2616277;54;20588;-77
2022/10/25 18:25:20;;;;;;;9.00;6.20;;;11.10;99.90;;;;;;2615982;54;20175;-77
2022/10/25 18:31:10;;;;;;;9.57;7.53;;;10.90;99.90;;;;;;2615602;54;20130;-78
2022/10/25 18:36:58;;;;;;;7.97;6.40;;;10.80;99.90;;;;;;2615817;39;20796;-79
2022/10/25 18:42:45;;;;;;;11.43;6.40;;;10.70;99.90;;;;;;2615498;54;20134;-80
2022/10/25 18:45:48;;;;;;;12.30;6.70;;;10.70;99.90;;;;;;2616119;54;20459;-79
2022/10/25 18:48:14;;;;;;;10.10;6.43;;;10.70;99.90;;;;;;2615155;54;20188;-78
2022/10/25 18:54:02;;;;;;;15.50;7.00;;;10.60;99.90;;;;;;2615883;54;20123;-78
2022/10/25 18:59:50;;;;;;;13.10;7.00;;;10.50;99.90;;;;;;2615785;54;20146;-77
2022/10/25 19:05:39;;;;;;;12.33;6.50;;;10.60;99.90;;;;;;2614951;54;20127;-78
2022/10/25 19:11:27;;;;;;;10.37;6.20;;;10.60;99.90;;;;;;2615764;54;20467;-77
2022/10/25 19:17:16;;;;;;;10.43;7.47;;;10.70;99.90;;;;;;2615883;54;20709;-78
2022/10/25 19:23:04;;;;;;;10.67;6.90;;;10.50;99.90;;;;;;2617108;54;20546;-80
2022/10/25 19:28:59;;;;;;;13.13;7.87;;;10.40;99.90;;;;;;2617272;54;20207;-77
2022/10/25 19:34:48;;;;;;;12.37;8.10;;;10.20;99.90;;;;;;2617095;54;20491;-78
2022/10/25 19:40:35;;;;;;;19.43;8.63;;;10.30;99.90;;;;;;2616736;54;20966;-78
2022/10/25 19:46:22;;;;;;;11.63;8.20;;;10.20;99.90;;;;;;2616721;39;20570;-79
2022/10/25 19:52:10;;;;;;;12.90;8.50;;;10.20;99.90;;;;;;2616513;54;20178;-77
2022/10/25 19:57:59;;;;;;;12.03;9.40;;;9.90;99.90;;;;;;2616449;54;20134;-80
2022/10/25 20:03:50;;;;;;;11.70;8.87;;;10.10;99.90;;;;;;2622692;54;20415;-79
2022/10/25 20:13:43;;;;;;;15.37;9.47;;;10.00;99.90;;;;;;2616645;54;21044;-78
2022/10/25 20:19:31;;;;;;;18.70;9.93;;;9.80;99.90;;;;;;2618326;54;20426;-76
2022/10/25 20:25:19;;;;;;;12.50;8.20;;;9.60;99.90;;;;;;2621860;54;20123;-82
2022/10/25 20:31:07;;;;;;;14.33;9.27;;;10.00;99.90;;;;;;2617319;54;20161;-79
2022/10/25 20:36:55;;;;;;;23.63;9.00;;;10.00;99.90;;;;;;2615738;54;20740;-78
2022/10/25 20:42:42;;;;;;;10.90;9.13;;;10.00;99.90;;;;;;2616032;54;20145;-77
2022/10/25 20:48:31;;;;;;;16.40;8.17;;;10.00;99.90;;;;;;2615264;54;20131;-79
2022/10/25 20:54:18;;;;;;;13.77;8.77;;;10.00;99.90;;;;;;2616115;54;20395;-78
2022/10/25 21:00:07;;;;;;;12.73;8.00;;;10.00;99.90;;;;;;2616002;54;20134;-78
2022/10/25 21:05:57;;;;;;;14.03;8.30;;;10.00;99.90;;;;;;2615987;54;21326;-77
2022/10/25 21:09:11;;;;;;;11.40;7.50;;;10.10;99.90;;;;;;2615107;54;20415;-78
2022/10/25 21:11:36;;;;;;;9.33;7.37;;;10.20;99.90;;;;;;2615530;54;20371;-77
2022/10/25 21:17:24;;;;;;;19.00;8.90;;;10.20;99.90;;;;;;2622027;54;20129;-81
2022/10/25 21:23:13;;;;;;;14.10;7.50;;;10.40;99.90;;;;;;2622103;54;20134;-81
2022/10/25 21:29:01;;;;;;;9.70;7.30;;;10.50;99.90;;;;;;2621575;54;21036;-80
2022/10/25 21:34:50;;;;;;;8.63;6.33;;;10.70;99.90;;;;;;2622730;54;20463;-83
2022/10/25 21:40:37;;;;;;;12.33;7.10;;;10.70;99.90;;;;;;2620886;39;20744;-77
2022/10/25 21:46:28;;;;;;;11.03;5.70;;;10.50;99.90;;;;;;2615185;54;20130;-76
2022/10/25 21:52:15;;;;;;;11.20;6.03;;;10.60;99.90;;;;;;2616068;54;20430;-77
2022/10/25 21:58:03;;;;;;;9.17;6.20;;;10.50;99.90;;;;;;2615678;54;20135;-78
2022/10/25 22:03:51;;;;;;;11.40;5.83;;;10.40;99.90;;;;;;2616159;54;20748;-79
2022/10/25 22:13:39;;;;;;;9.80;6.20;;;9.90;99.90;;;;;;2615743;54;21660;-77
2022/10/25 22:19:26;;;;;;;18.80;6.50;;;9.60;99.90;;;;;;2615197;54;20379;-75
2022/10/25 22:25:14;;;;;;;8.77;6.30;;;9.40;99.90;;;;;;2615560;54;20154;-76
2022/10/25 22:31:08;;;;;;;9.77;5.97;;;9.50;99.90;;;;;;2615430;54;20166;-78
2022/10/25 22:36:56;;;;;;;12.30;6.27;;;9.20;99.90;;;;;;2616739;54;20370;-80
2022/10/25 22:42:43;;;;;;;8.50;5.80;;;9.20;99.90;;;;;;2615325;39;20570;-76
2022/10/25 22:48:33;;;;;;;11.10;6.07;;;9.20;99.90;;;;;;2615457;54;20203;-77
2022/10/25 22:54:21;;;;;;;9.53;6.20;;;9.20;99.90;;;;;;2623502;54;20383;-80
2022/10/25 23:00:09;;;;;;;10.37;6.17;;;9.10;99.90;;;;;;2623573;54;20154;-81
2022/10/25 23:05:59;;;;;;;9.70;6.37;;;9.20;99.90;;;;;;2623515;54;20503;-80
2022/10/25 23:09:11;;;;;;;12.97;6.57;;;9.20;99.90;;;;;;2624551;39;20951;-80
2022/10/25 23:11:39;;;;;;;15.20;6.57;;;9.40;99.90;;;;;;2623281;47;20431;-81
2022/10/25 23:17:27;;;;;;;12.73;5.90;;;9.30;99.90;;;;;;2622631;54;20387;-80
2022/10/25 23:23:15;;;;;;;9.90;6.40;;;9.40;99.90;;;;;;2623756;54;20670;-80
2022/10/25 23:29:03;;;;;;;13.50;6.90;;;9.40;99.90;;;;;;2616501;54;20162;-76
2022/10/25 23:34:51;;;;;;;8.10;6.07;;;9.50;99.90;;;;;;2616347;54;20406;-76
2022/10/25 23:40:44;;;;;;;10.67;5.80;;;9.40;99.90;;;;;;2617180;54;20423;-80
2022/10/25 23:46:32;;;;;;;16.33;6.20;;;9.50;99.90;;;;;;2623970;54;20402;-81
2022/10/25 23:52:19;;;;;;;7.87;6.37;;;9.40;99.90;;;;;;2616685;54;20134;-79
2022/10/25 23:58:07;;;;;;;12.80;6.23;;;9.30;99.90;;;;;;2618269;39;20325;-79
